Lodi, WI

1:47 AM CDT en Julio 29, 2015 (GMT -0500)
Toneman3 | | Change Station
CLOSE
Current Station
Estación meteorológica personal
Location: Lodi, WI
Altura: 879 ft
Estaciones meteorológicas cercanas

Alt 879 ft 43.32 °N, 89.54 °W | Updated 2 minutes ago

Muy nublado
Muy nublado
76.2 ° F
Sensación térmica 76 ° F
N
1.0
Viento Variable Viento desde Oeste
Gusts 1.0 mph

Hoy
Alta -- | Baja -- ° F
--% Posibilidad de precipitaciones
Ayer
Alta -- | Baja -- ° F
Precip. -- pul
5:44 AM 8:23 PM
Gibosa creciente, 94% visible
Presión 29.91 pul
Visibilidad 10.0 Millas
Nubes Nubes dispersas 3200 ft
Nubes dispersas 4000 ft
Nublado 4800 ft
Índice de calor 76 ° F
Punto de rocío 73 ° F
Humedad 91%
Precipitaciones 0.00 pul
Espesor de la nieve No disponible.
UV 0 de una escala de 12
Polen 6.50 de una escala de 12
Calidad del aire No disponible.
Flu Activity No disponible.
METAR KC29 290635Z AUTO 00000KT 10SM SCT032 SCT040 OVC048 24/23 A2991 RMK AO1 T02410233

More Conditions Fewer Conditions

Presión 29.91 pul
Visibilidad 10.0 Millas
Nubes Nubes dispersas 3200 ft
Nubes dispersas 4000 ft
Nublado 4800 ft
Índice de calor 76 ° F
Punto de rocío 73 ° F
Humedad 91%
Precipitaciones 0.00 pul
Espesor de la nieve No disponible.
UV 0 de una escala de 12
Polen 6.50 de una escala de 12
Calidad del aire No disponible.
Flu Activity No disponible.
METAR KC29 290635Z AUTO 00000KT 10SM SCT032 SCT040 OVC048 24/23 A2991 RMK AO1 T02410233

More Conditions Fewer Conditions

10-Day Weather Forecast

×

Almanac

Astronomía

Jul. 29, 2015 Salida Puesta
Hora real
Crepúsculo civil
Crepúsculo náutico
Crepúsculo astronómico
Luna
Horas de luz
Horas de luz
Tomorrow will be .
, % of the Moon is Illuminated

Extremos de hoy

Máximos del estado Bajos del estado

Community

WunderPhotos

Upload Photos

1,842,061 ¡fotos cargadas!

WunderBlogs® & News

Nearby

Calidad del aire

  Calidad del aire Índice AQ Contaminante
Not available.

Grosos de nieve

Estación Profundido Altura

Actividad de terremotos

Ciudad Distance Mag. Tiempo y dato
Magnitud mínima muestra es 2,5.

Temperaturas de aguas costeras

Lugar Temperatura

Stations

Estaciones meteorológicas cercanas

Ubicación de la estación Temp. Vientos helados Punto de rocío Humedad Viento Precip. Alt Actualizado Tipo